createdAt,value
2018-04-08T00:00:33.881Z,45.07
2018-04-08T00:02:59.719Z,46.79
2018-04-08T00:05:25.535Z,46.69
2018-04-08T00:07:51.371Z,46.21
2018-04-08T00:10:17.997Z,46.51
2018-04-08T00:12:44.768Z,44.99
2018-04-08T00:15:11.406Z,46.54
2018-04-08T00:17:37.215Z,46.41
2018-04-08T00:20:03.985Z,46.50
2018-04-08T00:22:29.802Z,46.52
2018-04-08T00:24:55.661Z,45.79
2018-04-08T00:27:21.466Z,46.65
2018-04-08T00:29:47.274Z,46.36
2018-04-08T00:32:13.103Z,46.05
2018-04-08T00:34:38.921Z,46.63
2018-04-08T00:37:04.728Z,45.61
2018-04-08T00:39:30.532Z,46.66
2018-04-08T00:41:57.159Z,46.75
2018-04-08T00:44:22.968Z,46.54
2018-04-08T00:46:49.811Z,46.64
2018-04-08T00:49:15.654Z,46.32
2018-04-08T00:51:41.466Z,46.47
2018-04-08T00:54:13.493Z,46.73
2018-04-08T00:56:39.324Z,47.23
2018-04-08T00:59:05.134Z,46.92
2018-04-08T01:01:31.887Z,46.38
2018-04-08T01:03:58.653Z,47.17
2018-04-08T01:06:24.470Z,47.18
2018-04-08T01:08:50.285Z,46.65
2018-04-08T01:11:16.103Z,47.09
2018-04-08T01:13:41.938Z,46.57
2018-04-08T01:16:07.754Z,46.89
2018-04-08T01:18:33.571Z,47.00
2018-04-08T01:21:00.304Z,46.41
2018-04-08T01:23:26.132Z,47.03
2018-04-08T01:25:55.003Z,47.17
2018-04-08T01:28:20.831Z,45.93
2018-04-08T01:30:46.662Z,46.58
2018-04-08T01:33:12.478Z,46.83
2018-04-08T01:35:38.292Z,47.33
2018-04-08T01:38:04.114Z,45.96
2018-04-08T01:40:29.934Z,46.30
2018-04-08T01:42:55.792Z,46.17
2018-04-08T01:45:21.603Z,46.91
2018-04-08T01:47:47.450Z,46.08
2018-04-08T01:50:13.287Z,45.86
2018-04-08T01:52:39.100Z,47.09
2018-04-08T01:55:04.903Z,47.23
2018-04-08T01:57:30.725Z,47.03
2018-04-08T01:59:56.547Z,45.78
2018-04-08T02:02:22.366Z,46.96
2018-04-08T02:04:48.201Z,46.74
2018-04-08T02:07:14.010Z,46.86
2018-04-08T02:09:39.846Z,46.42
2018-04-08T02:12:05.682Z,46.91
2018-04-08T02:14:31.534Z,46.36
2018-04-08T02:16:57.348Z,46.52
2018-04-08T02:19:23.160Z,46.68
2018-04-08T02:21:48.971Z,46.38
2018-04-08T02:24:14.790Z,45.07
2018-04-08T02:26:40.612Z,45.72
2018-04-08T02:29:06.425Z,45.24
2018-04-08T02:31:32.239Z,45.89
2018-04-08T02:33:58.059Z,45.70
2018-04-08T02:36:23.879Z,45.94
2018-04-08T02:38:49.697Z,46.56
2018-04-08T02:41:15.555Z,46.25
2018-04-08T02:43:41.373Z,46.44
2018-04-08T02:46:07.235Z,46.00
2018-04-08T02:48:33.044Z,46.35
2018-04-08T02:50:58.980Z,46.27
2018-04-08T02:53:24.794Z,46.97
2018-04-08T02:55:50.644Z,46.85
2018-04-08T02:58:16.460Z,46.32
2018-04-08T03:00:42.298Z,46.64
2018-04-08T03:03:08.115Z,46.92
2018-04-08T03:05:33.936Z,46.53
2018-04-08T03:07:59.751Z,46.44
2018-04-08T03:10:25.610Z,46.93
2018-04-08T03:12:51.425Z,46.78
2018-04-08T03:15:17.267Z,46.65
2018-04-08T03:17:43.106Z,47.21
2018-04-08T03:20:08.918Z,47.20
2018-04-08T03:22:34.727Z,46.93
2018-04-08T03:25:00.571Z,47.20
2018-04-08T03:27:26.378Z,46.92
2018-04-08T03:29:52.238Z,46.83
2018-04-08T03:32:18.135Z,46.90
2018-04-08T03:34:43.988Z,46.17
2018-04-08T03:37:09.802Z,46.50
2018-04-08T03:39:35.619Z,46.66
2018-04-08T03:42:01.429Z,46.37
2018-04-08T03:44:27.237Z,46.59
2018-04-08T03:46:53.063Z,46.62
2018-04-08T03:49:18.882Z,46.16
2018-04-08T03:51:44.724Z,45.52
2018-04-08T03:54:10.555Z,45.57
2018-04-08T03:56:36.391Z,45.54
2018-04-08T03:59:02.221Z,45.14
2018-04-08T04:01:28.926Z,45.98
2018-04-08T04:03:54.746Z,45.89
2018-04-08T04:06:20.611Z,45.66
2018-04-08T04:08:46.423Z,45.17
2018-04-08T04:11:12.259Z,45.27
2018-04-08T04:13:38.082Z,45.17
2018-04-08T04:16:03.910Z,45.11
2018-04-08T04:18:35.811Z,45.13
2018-04-08T04:21:07.795Z,44.45
2018-04-08T04:23:39.680Z,44.62
2018-04-08T04:26:05.518Z,44.49
2018-04-08T04:28:31.344Z,45.18
2018-04-08T04:30:57.174Z,44.38
2018-04-08T04:33:22.983Z,45.03
2018-04-08T04:35:48.807Z,44.38
2018-04-08T04:38:14.624Z,44.31
2018-04-08T04:40:40.438Z,45.01
2018-04-08T04:43:06.246Z,44.24
2018-04-08T04:45:32.064Z,44.19
2018-04-08T04:47:57.884Z,44.26
2018-04-08T04:50:23.697Z,44.01
2018-04-08T04:52:49.502Z,44.02
2018-04-08T04:55:15.319Z,44.28
2018-04-08T04:57:41.134Z,43.82
2018-04-08T05:00:06.974Z,44.59
2018-04-08T05:02:32.779Z,43.78
2018-04-08T05:04:58.593Z,43.90
2018-04-08T05:07:24.395Z,43.92
2018-04-08T05:09:50.210Z,44.23
2018-04-08T05:12:16.030Z,43.88
2018-04-08T05:14:41.850Z,44.46
2018-04-08T05:17:07.694Z,43.86
2018-04-08T05:19:33.507Z,44.31
2018-04-08T05:21:59.319Z,44.15
2018-04-08T05:24:25.131Z,44.27
2018-04-08T05:26:51.115Z,44.78
2018-04-08T05:29:16.932Z,45.12
2018-04-08T05:31:42.746Z,45.30
2018-04-08T05:34:08.555Z,45.58
2018-04-08T05:36:34.372Z,45.59
2018-04-08T05:39:00.199Z,45.64
2018-04-08T05:41:26.135Z,46.05
2018-04-08T05:43:51.959Z,46.31
2018-04-08T05:46:17.798Z,46.13
2018-04-08T05:48:43.655Z,45.98
2018-04-08T05:51:09.467Z,45.44
2018-04-08T05:53:35.327Z,46.29
2018-04-08T05:56:01.147Z,46.45
2018-04-08T05:58:27.079Z,46.06
2018-04-08T06:00:52.910Z,45.66
2018-04-08T06:03:18.760Z,46.29
2018-04-08T06:05:44.611Z,46.13
2018-04-08T06:08:10.483Z,45.99
2018-04-08T06:10:36.318Z,46.20
2018-04-08T06:13:02.163Z,46.44
2018-04-08T06:15:28.011Z,46.15
2018-04-08T06:17:53.824Z,46.97
2018-04-08T06:20:19.674Z,46.17
2018-04-08T06:22:45.507Z,46.19
2018-04-08T06:25:11.415Z,45.77
2018-04-08T06:27:38.212Z,45.91
2018-04-08T06:30:04.031Z,46.10
2018-04-08T06:32:29.867Z,46.06
2018-04-08T06:34:55.694Z,45.82
2018-04-08T06:37:21.514Z,45.96
2018-04-08T06:39:47.458Z,45.80
2018-04-08T06:42:13.310Z,46.10
2018-04-08T06:44:39.242Z,46.10
2018-04-08T06:47:05.120Z,45.66
2018-04-08T06:49:31.610Z,46.19
2018-04-08T06:51:57.584Z,46.10
2018-04-08T06:54:23.400Z,46.20
2018-04-08T06:56:49.209Z,46.41
2018-04-08T06:59:15.138Z,45.94
2018-04-08T07:01:41.530Z,46.23
2018-04-08T07:04:07.468Z,46.30
2018-04-08T07:06:33.302Z,45.99
2018-04-08T07:08:59.112Z,46.65
2018-04-08T07:11:24.958Z,46.85
2018-04-08T07:13:50.769Z,46.31
2018-04-08T07:16:16.834Z,46.66
2018-04-08T07:18:42.861Z,46.14
2018-04-08T07:21:08.692Z,46.14
2018-04-08T07:23:34.610Z,46.62
2018-04-08T07:26:00.436Z,46.52
2018-04-08T07:28:26.266Z,46.91
2018-04-08T07:30:52.115Z,46.67
2018-04-08T07:33:17.930Z,46.65
2018-04-08T07:35:43.739Z,46.49
2018-04-08T07:38:09.556Z,46.38
2018-04-08T07:40:35.386Z,46.26
2018-04-08T07:43:01.206Z,46.33
2018-04-08T07:45:28.526Z,46.16
2018-04-08T07:47:54.369Z,46.23
2018-04-08T07:50:20.201Z,46.48
2018-04-08T07:52:46.018Z,46.42
2018-04-08T07:55:11.829Z,46.32
2018-04-08T07:57:37.654Z,46.35
2018-04-08T08:00:03.673Z,46.28
2018-04-08T08:02:29.610Z,46.34
2018-04-08T08:04:55.415Z,46.26
2018-04-08T08:07:24.434Z,46.02
2018-04-08T08:09:51.370Z,46.11
2018-04-08T08:12:17.181Z,46.27
2018-04-08T08:14:43.001Z,46.30
2018-04-08T08:17:08.816Z,46.35
2018-04-08T08:19:34.624Z,46.42
2018-04-08T08:22:00.492Z,46.46
2018-04-08T08:24:26.302Z,46.43
2018-04-08T08:26:52.115Z,46.36
2018-04-08T08:29:17.936Z,46.38
2018-04-08T08:31:43.850Z,46.32
2018-04-08T08:34:09.668Z,46.10
2018-04-08T08:36:35.657Z,45.14
2018-04-08T08:39:01.464Z,45.12
2018-04-08T08:41:27.278Z,44.88
2018-04-08T08:43:53.086Z,44.65
2018-04-08T08:46:18.938Z,44.51
2018-04-08T08:48:44.750Z,44.73
2018-04-08T08:51:10.600Z,43.97
2018-04-08T08:53:36.411Z,44.78
2018-04-08T08:56:02.259Z,44.94
2018-04-08T08:58:28.081Z,45.26
2018-04-08T09:00:53.903Z,45.54
2018-04-08T09:03:19.815Z,45.82
2018-04-08T09:05:45.624Z,45.78
2018-04-08T09:08:11.450Z,45.79
2018-04-08T09:10:37.265Z,46.03
2018-04-08T09:13:03.087Z,45.99
2018-04-08T09:15:28.951Z,45.99
2018-04-08T09:17:54.822Z,46.06
2018-04-08T09:20:26.689Z,46.11
2018-04-08T09:22:58.810Z,46.21
2018-04-08T09:25:26.494Z,46.27
2018-04-08T09:27:52.351Z,46.37
2018-04-08T09:30:18.232Z,46.18
2018-04-08T09:32:44.202Z,46.20
2018-04-08T09:35:10.027Z,46.03
2018-04-08T09:37:35.878Z,46.05
2018-04-08T09:40:01.691Z,46.18
2018-04-08T09:42:27.551Z,46.11
2018-04-08T09:44:53.358Z,46.21
2018-04-08T09:47:19.207Z,46.16
2018-04-08T09:49:45.009Z,46.22
2018-04-08T09:52:10.846Z,46.15
2018-04-08T09:54:36.678Z,46.18
2018-04-08T09:57:02.505Z,46.02
2018-04-08T09:59:28.401Z,46.08
2018-04-08T10:04:51.502Z,46.31
2018-04-08T10:07:17.314Z,46.03
2018-04-08T10:09:43.129Z,45.96
2018-04-08T10:12:22.529Z,45.99
2018-04-08T10:14:48.352Z,46.08
2018-04-08T10:17:14.204Z,46.04
2018-04-08T10:19:40.035Z,45.96
2018-04-08T10:22:05.855Z,45.83
2018-04-08T10:24:31.794Z,45.98
2018-04-08T10:26:57.602Z,46.01
2018-04-08T10:29:23.533Z,45.93
2018-04-08T10:31:49.466Z,46.08
2018-04-08T10:34:15.323Z,46.21
2018-04-08T10:36:41.527Z,46.06
2018-04-08T10:39:08.391Z,46.11
2018-04-08T10:41:34.242Z,46.23
2018-04-08T10:44:00.087Z,46.21
2018-04-08T10:46:26.015Z,46.14
2018-04-08T10:48:51.838Z,46.20
2018-04-08T10:51:17.676Z,45.98
2018-04-08T10:53:43.486Z,46.14
2018-04-08T10:56:09.343Z,46.28
2018-04-08T10:58:35.186Z,46.23
2018-04-08T11:01:01.007Z,45.57
2018-04-08T11:03:26.825Z,45.92
2018-04-08T11:05:52.631Z,45.85
2018-04-08T11:08:18.447Z,45.91
2018-04-08T11:10:44.309Z,46.10
2018-04-08T11:13:10.219Z,46.18
2018-04-08T11:15:36.028Z,46.24
2018-04-08T11:18:01.866Z,46.37
2018-04-08T11:20:27.691Z,46.50
2018-04-08T11:22:53.499Z,46.43
2018-04-08T11:25:19.360Z,46.65
2018-04-08T11:27:45.166Z,46.35
2018-04-08T11:30:11.024Z,46.41
2018-04-08T11:32:36.828Z,46.32
2018-04-08T11:35:02.666Z,46.50
2018-04-08T11:37:28.482Z,46.62
2018-04-08T11:39:54.299Z,46.55
2018-04-08T11:42:20.114Z,46.48
2018-04-08T11:44:45.921Z,46.49
2018-04-08T11:47:11.732Z,46.54
2018-04-08T11:49:37.567Z,46.72
2018-04-08T11:52:03.386Z,46.83
2018-04-08T11:54:29.200Z,46.70
2018-04-08T11:56:55.016Z,46.79
2018-04-08T11:59:20.880Z,46.71
2018-04-08T12:01:46.710Z,46.82
2018-04-08T12:04:12.539Z,46.92
2018-04-08T12:06:38.349Z,47.06
2018-04-08T12:09:05.151Z,46.96
2018-04-08T12:11:30.958Z,47.19
2018-04-08T12:13:57.595Z,47.22
2018-04-08T12:16:23.419Z,47.37
2018-04-08T12:18:49.227Z,47.17
2018-04-08T12:21:15.063Z,47.07
2018-04-08T12:23:40.882Z,47.14
2018-04-08T12:26:06.714Z,47.18
2018-04-08T12:28:32.545Z,47.20
2018-04-08T12:30:58.398Z,46.99
2018-04-08T12:33:24.222Z,46.84
2018-04-08T12:35:50.063Z,46.76
2018-04-08T12:38:15.918Z,46.77
2018-04-08T12:40:41.747Z,46.69
2018-04-08T12:43:07.582Z,46.71
2018-04-08T12:45:33.398Z,46.74
2018-04-08T12:47:59.247Z,46.91
2018-04-08T12:50:25.079Z,46.87
2018-04-08T12:52:50.927Z,46.98
2018-04-08T12:55:16.742Z,46.92
2018-04-08T12:57:42.576Z,47.07
2018-04-08T13:00:08.419Z,46.97
2018-04-08T13:02:34.250Z,47.07
2018-04-08T13:05:00.056Z,47.02
2018-04-08T13:07:25.884Z,47.09
2018-04-08T13:09:51.726Z,47.05
2018-04-08T13:12:17.562Z,47.06
2018-04-08T13:14:43.411Z,47.15
2018-04-08T13:17:09.227Z,47.15
2018-04-08T13:19:35.118Z,47.08
2018-04-08T13:22:00.935Z,47.17
2018-04-08T13:24:26.815Z,47.43
2018-04-08T13:26:52.635Z,47.17
2018-04-08T13:29:18.455Z,47.13
2018-04-08T13:31:44.261Z,47.14
2018-04-08T13:34:10.070Z,47.20
2018-04-08T13:36:35.886Z,47.08
2018-04-08T13:39:01.719Z,47.17
2018-04-08T13:41:27.549Z,47.15
2018-04-08T13:43:53.350Z,47.09
2018-04-08T13:46:19.153Z,47.13
2018-04-08T13:48:44.964Z,47.10
2018-04-08T13:51:10.778Z,47.16
2018-04-08T13:53:36.587Z,47.01
2018-04-08T13:56:02.413Z,47.02
2018-04-08T13:58:28.255Z,47.29
2018-04-08T14:00:54.094Z,47.17
2018-04-08T14:03:19.902Z,47.33
2018-04-08T14:05:45.763Z,47.21
2018-04-08T14:08:11.591Z,47.36
2018-04-08T14:10:37.404Z,47.21
2018-04-08T14:13:04.023Z,47.23
2018-04-08T14:15:29.833Z,47.25
2018-04-08T14:17:55.638Z,47.34
2018-04-08T14:20:21.451Z,47.51
2018-04-08T14:22:47.299Z,47.40
2018-04-08T14:25:13.128Z,47.35
2018-04-08T14:27:38.970Z,47.40
2018-04-08T14:30:04.803Z,47.70
2018-04-08T14:32:30.610Z,47.54
2018-04-08T14:34:56.425Z,47.63
2018-04-08T14:37:22.249Z,47.74
2018-04-08T14:39:48.078Z,47.66
2018-04-08T14:42:14.011Z,47.57
2018-04-08T14:44:39.863Z,47.78
2018-04-08T14:47:05.691Z,47.81
2018-04-08T14:49:31.559Z,47.74
2018-04-08T14:51:57.379Z,47.67
2018-04-08T14:54:23.202Z,47.96
2018-04-08T14:56:49.025Z,47.90
2018-04-08T14:59:14.846Z,47.89
2018-04-08T15:01:46.662Z,47.88
2018-04-08T15:04:06.519Z,47.89
2018-04-08T15:06:32.422Z,47.88
2018-04-08T15:08:58.258Z,47.97
2018-04-08T15:11:24.078Z,47.91
2018-04-08T15:13:50.167Z,47.99
2018-04-08T15:16:15.996Z,48.00
2018-04-08T15:18:41.828Z,47.93
2018-04-08T15:21:07.649Z,48.20
2018-04-08T15:23:33.484Z,48.03
2018-04-08T15:25:59.299Z,48.18
2018-04-08T15:28:25.128Z,48.12
2018-04-08T15:30:50.938Z,48.33
2018-04-08T15:33:16.798Z,48.35
2018-04-08T15:35:42.611Z,48.13
2018-04-08T15:38:08.421Z,48.18
2018-04-08T15:40:34.246Z,48.32
2018-04-08T15:43:00.107Z,48.25
2018-04-08T15:45:25.939Z,48.35
2018-04-08T15:47:51.750Z,48.38
2018-04-08T15:50:17.563Z,48.39
2018-04-08T15:52:43.490Z,48.42
2018-04-08T15:55:09.306Z,48.07
2018-04-08T15:57:35.119Z,48.18
2018-04-08T16:00:00.940Z,48.38
2018-04-08T16:02:26.756Z,48.41
2018-04-08T16:04:52.582Z,48.48
2018-04-08T16:07:18.407Z,48.41
2018-04-08T16:09:44.351Z,48.49
2018-04-08T16:12:10.199Z,48.27
2018-04-08T16:14:36.117Z,48.36
2018-04-08T16:17:01.923Z,48.27
2018-04-08T16:19:27.923Z,48.27
2018-04-08T16:21:53.798Z,48.08
2018-04-08T16:24:19.626Z,47.93
2018-04-08T16:26:45.486Z,47.40
2018-04-08T16:29:11.427Z,47.01
2018-04-08T16:31:37.271Z,46.69
2018-04-08T16:34:03.100Z,46.69
2018-04-08T16:36:28.983Z,46.58
2018-04-08T16:38:54.832Z,46.58
2018-04-08T16:41:20.666Z,46.55
2018-04-08T16:43:46.514Z,46.63
2018-04-08T16:46:12.331Z,46.64
2018-04-08T16:48:38.133Z,46.70
2018-04-08T16:51:03.954Z,46.78
2018-04-08T16:53:29.766Z,46.87
2018-04-08T16:55:55.595Z,46.88
2018-04-08T16:58:21.438Z,46.94
2018-04-08T17:03:33.258Z,47.32
2018-04-08T17:05:59.212Z,47.17
2018-04-08T17:08:25.030Z,47.18
2018-04-08T17:10:50.963Z,47.26
2018-04-08T17:13:16.778Z,47.64
2018-04-08T17:15:42.623Z,47.73
2018-04-08T17:18:08.457Z,47.80
2018-04-08T17:20:34.339Z,48.10
2018-04-08T17:23:00.179Z,48.17
2018-04-08T17:25:26.007Z,48.16
2018-04-08T17:27:51.839Z,48.36
2018-04-08T17:30:17.694Z,48.24
2018-04-08T17:32:43.514Z,48.31
2018-04-08T17:35:09.330Z,48.47
2018-04-08T17:37:35.145Z,48.42
2018-04-08T17:40:00.962Z,48.26
2018-04-08T17:42:26.828Z,48.41
2018-04-08T17:44:52.659Z,48.54
2018-04-08T17:47:18.700Z,48.40
2018-04-08T17:49:44.536Z,48.46
2018-04-08T17:52:10.368Z,48.45
2018-04-08T17:54:36.191Z,48.35
2018-04-08T17:57:02.008Z,48.47
2018-04-08T17:59:27.822Z,48.33
2018-04-08T18:01:53.651Z,48.55
2018-04-08T18:04:19.463Z,48.81
2018-04-08T18:06:45.386Z,48.90
2018-04-08T18:09:11.211Z,48.75
2018-04-08T18:11:37.054Z,49.16
2018-04-08T18:14:02.867Z,49.01
2018-04-08T18:16:28.689Z,48.98
2018-04-08T18:18:54.501Z,49.07
2018-04-08T18:21:20.324Z,49.09
2018-04-08T18:23:46.135Z,48.96
2018-04-08T18:26:11.983Z,49.13
2018-04-08T18:28:37.839Z,49.02
2018-04-08T18:31:03.659Z,49.14
2018-04-08T18:33:29.503Z,48.92
2018-04-08T18:35:59.939Z,48.95
2018-04-08T18:38:26.482Z,49.12
2018-04-08T18:40:52.556Z,49.28
2018-04-08T18:43:19.153Z,49.25
2018-04-08T18:45:46.125Z,49.32
2018-04-08T18:48:12.032Z,49.31
2018-04-08T18:50:40.580Z,49.05
2018-04-08T18:53:09.655Z,48.81
2018-04-08T18:55:38.610Z,48.57
2018-04-08T18:58:05.561Z,48.26
2018-04-08T19:00:33.713Z,47.99
2018-04-08T19:03:00.289Z,47.85
2018-04-08T19:05:26.498Z,47.70
2018-04-08T19:07:52.387Z,47.56
2018-04-08T19:10:18.242Z,47.58
2018-04-08T19:12:44.083Z,47.75
2018-04-08T19:15:16.058Z,47.81
2018-04-08T19:17:47.880Z,48.08
2018-04-08T19:20:13.699Z,48.44
2018-04-08T19:22:39.634Z,48.58
2018-04-08T19:25:05.462Z,48.69
2018-04-08T19:27:35.216Z,48.80
2018-04-08T19:30:01.054Z,49.00
2018-04-08T19:32:26.903Z,48.53
2018-04-08T19:34:52.737Z,48.54
2018-04-08T19:37:18.621Z,48.90
2018-04-08T19:39:44.434Z,48.79
2018-04-08T19:42:10.256Z,49.07
2018-04-08T19:44:36.203Z,49.00
2018-04-08T19:47:02.052Z,49.18
2018-04-08T19:49:27.946Z,49.32
2018-04-08T19:51:53.894Z,49.38
2018-04-08T19:54:19.723Z,49.31
2018-04-08T19:56:45.562Z,49.35
2018-04-08T19:59:11.384Z,49.28
2018-04-08T20:01:37.219Z,49.60
2018-04-08T20:04:03.171Z,49.45
2018-04-08T20:06:28.990Z,49.50
2018-04-08T20:08:54.857Z,49.57
2018-04-08T20:11:20.659Z,49.45
2018-04-08T20:13:46.508Z,49.62
2018-04-08T20:16:12.354Z,49.68
2018-04-08T20:18:38.207Z,49.60
2018-04-08T20:21:04.032Z,49.23
2018-04-08T20:23:29.843Z,48.63
2018-04-08T20:25:55.660Z,48.62
2018-04-08T20:28:21.567Z,48.72
2018-04-08T20:30:47.604Z,48.88
2018-04-08T20:33:13.670Z,48.67
2018-04-08T20:35:39.752Z,48.57
2018-04-08T20:38:05.851Z,48.35
2018-04-08T20:40:31.914Z,48.22
2018-04-08T20:42:58.161Z,48.08
2018-04-08T20:45:24.069Z,47.50
2018-04-08T20:47:50.084Z,47.38
2018-04-08T20:50:16.501Z,47.73
2018-04-08T20:52:42.351Z,48.16
2018-04-08T20:55:08.160Z,48.40
2018-04-08T20:57:34.364Z,48.38
2018-04-08T21:00:01.139Z,48.10
2018-04-08T21:02:27.059Z,47.74
2018-04-08T21:04:52.986Z,48.01
2018-04-08T21:07:18.796Z,46.73
2018-04-08T21:09:44.611Z,48.65
2018-04-08T21:12:10.670Z,48.77
2018-04-08T21:14:37.607Z,48.77
2018-04-08T21:17:03.749Z,49.20
2018-04-08T21:19:29.615Z,49.07
2018-04-08T21:21:55.423Z,48.65
2018-04-08T21:24:21.420Z,49.42
2018-04-08T21:26:47.571Z,49.29
2018-04-08T21:29:13.395Z,48.90
2018-04-08T21:31:39.319Z,49.13
2018-04-08T21:34:05.174Z,49.16
2018-04-08T21:36:31.051Z,49.16
2018-04-08T21:38:56.890Z,49.13
2018-04-08T21:41:22.883Z,49.21
2018-04-08T21:43:48.718Z,49.02
2018-04-08T21:46:14.559Z,48.71
2018-04-08T21:48:40.659Z,48.75
2018-04-08T21:51:06.524Z,48.71
2018-04-08T21:53:32.354Z,49.37
2018-04-08T21:55:58.474Z,49.19
2018-04-08T21:58:24.409Z,49.60
2018-04-08T22:00:50.262Z,49.13
2018-04-08T22:03:16.073Z,49.11
2018-04-08T22:05:41.899Z,48.59
2018-04-08T22:08:07.780Z,49.30
2018-04-08T22:10:33.603Z,48.94
2018-04-08T22:12:59.441Z,49.32
2018-04-08T22:15:25.245Z,49.58
2018-04-08T22:17:51.111Z,49.68
2018-04-08T22:20:16.938Z,49.53
2018-04-08T22:22:42.772Z,49.04
2018-04-08T22:25:08.587Z,48.61
2018-04-08T22:27:34.397Z,48.50
2018-04-08T22:30:00.212Z,48.45
2018-04-08T22:32:26.022Z,48.66
2018-04-08T22:34:51.835Z,48.82
2018-04-08T22:37:17.654Z,49.41
2018-04-08T22:39:43.495Z,49.09
2018-04-08T22:42:09.332Z,49.37
2018-04-08T22:44:35.141Z,49.17
2018-04-08T22:47:00.954Z,49.20
2018-04-08T22:49:26.951Z,49.05
2018-04-08T22:51:52.766Z,49.34
2018-04-08T22:54:18.578Z,49.04
2018-04-08T22:56:44.435Z,49.08
2018-04-08T22:59:10.262Z,49.56
2018-04-08T23:01:36.077Z,49.48
2018-04-08T23:04:01.890Z,49.70
2018-04-08T23:06:27.739Z,49.86
2018-04-08T23:08:53.546Z,49.27
2018-04-08T23:11:19.367Z,49.11
2018-04-08T23:13:45.174Z,48.95
2018-04-08T23:16:10.983Z,49.23
2018-04-08T23:18:36.817Z,49.72
2018-04-08T23:21:02.630Z,48.73
2018-04-08T23:23:28.434Z,48.43
2018-04-08T23:25:54.250Z,49.13
2018-04-08T23:28:20.055Z,49.32
2018-04-08T23:30:45.863Z,48.86
2018-04-08T23:33:11.697Z,47.98
2018-04-08T23:35:37.501Z,48.33
2018-04-08T23:38:03.385Z,47.70
2018-04-08T23:40:29.202Z,47.98
2018-04-08T23:42:55.005Z,48.30
2018-04-08T23:45:20.823Z,47.89
2018-04-08T23:47:46.629Z,48.58
2018-04-08T23:50:12.450Z,48.69
2018-04-08T23:52:38.261Z,48.99
2018-04-08T23:55:04.072Z,49.05
2018-04-08T23:57:29.878Z,48.52
2018-04-08T23:59:55.722Z,48.02
